createdAt,value
2022-10-19T00:01:38.915Z,100.00
2022-10-19T00:04:08.656Z,100.00
2022-10-19T00:06:36.858Z,100.00
2022-10-19T00:09:09.900Z,100.00
2022-10-19T00:11:40.539Z,100.00
2022-10-19T00:14:10.577Z,100.00
2022-10-19T00:16:38.304Z,100.00
2022-10-19T00:19:09.149Z,100.00
2022-10-19T00:21:36.028Z,100.00
2022-10-19T00:24:02.690Z,100.00
2022-10-19T00:26:29.363Z,100.00
2022-10-19T00:28:56.821Z,100.00
2022-10-19T00:31:24.297Z,100.00
2022-10-19T00:33:51.636Z,100.00
2022-10-19T00:36:24.369Z,100.00
2022-10-19T00:38:51.886Z,100.00
2022-10-19T00:41:20.656Z,100.00
2022-10-19T00:44:26.979Z,100.00
2022-10-19T00:46:53.811Z,100.00
2022-10-19T00:49:24.656Z,100.00
2022-10-19T00:51:55.645Z,100.00
2022-10-19T00:54:23.554Z,100.00
2022-10-19T00:56:53.413Z,100.00
2022-10-19T00:59:22.582Z,100.00
2022-10-19T01:01:49.909Z,100.00
2022-10-19T01:04:17.014Z,100.00
2022-10-19T01:06:43.685Z,100.00
2022-10-19T01:09:10.333Z,100.00
2022-10-19T01:12:03.019Z,100.00
2022-10-19T01:14:38.646Z,100.00
2022-10-19T01:17:26.656Z,100.00
2022-10-19T01:20:04.285Z,100.00
2022-10-19T01:22:30.847Z,100.00
2022-10-19T01:25:00.633Z,100.00
2022-10-19T01:27:34.124Z,100.00
2022-10-19T01:30:17.490Z,100.00
2022-10-19T01:32:44.074Z,100.00
2022-10-19T01:35:24.669Z,100.00
2022-10-19T01:38:12.781Z,100.00
2022-10-19T01:40:53.917Z,100.00
2022-10-19T01:43:43.795Z,100.00
2022-10-19T01:46:18.906Z,100.00
2022-10-19T01:48:54.489Z,100.00
2022-10-19T01:51:30.381Z,100.00
2022-10-19T01:54:00.908Z,100.00
2022-10-19T01:56:30.721Z,100.00
2022-10-19T01:59:01.674Z,100.00
2022-10-19T02:01:33.621Z,100.00
2022-10-19T02:04:02.186Z,100.00
2022-10-19T02:06:28.934Z,100.00
2022-10-19T02:08:55.822Z,100.00
2022-10-19T02:11:24.061Z,100.00
2022-10-19T02:14:03.911Z,100.00
2022-10-19T02:16:38.112Z,100.00
2022-10-19T02:19:08.691Z,100.00
2022-10-19T02:21:35.473Z,100.00
2022-10-19T02:24:02.063Z,100.00
2022-10-19T02:26:28.660Z,100.00
2022-10-19T02:28:56.417Z,100.00
2022-10-19T02:31:23.984Z,100.00
2022-10-19T02:33:51.138Z,100.00
2022-10-19T02:36:18.662Z,100.00
2022-10-19T02:38:45.320Z,100.00
2022-10-19T02:41:50.361Z,100.00
2022-10-19T02:44:25.623Z,100.00
2022-10-19T02:46:58.883Z,100.00
2022-10-19T02:49:25.738Z,100.00
2022-10-19T02:52:04.442Z,100.00
2022-10-19T02:54:31.203Z,100.00
2022-10-19T02:56:57.838Z,100.00
2022-10-19T02:59:25.071Z,100.00
2022-10-19T03:01:52.114Z,100.00
2022-10-19T03:04:18.742Z,100.00
2022-10-19T03:06:45.339Z,100.00
2022-10-19T03:09:11.959Z,100.00
2022-10-19T03:11:38.574Z,100.00
2022-10-19T03:14:05.181Z,100.00
2022-10-19T03:16:31.762Z,100.00
2022-10-19T03:18:58.325Z,100.00
2022-10-19T03:21:24.903Z,100.00
2022-10-19T03:23:51.496Z,100.00
2022-10-19T03:26:18.403Z,100.00
2022-10-19T03:28:45.164Z,100.00
2022-10-19T03:31:12.002Z,100.00
2022-10-19T03:33:38.730Z,100.00
2022-10-19T03:36:26.111Z,100.00
2022-10-19T03:38:54.597Z,100.00
2022-10-19T03:41:22.969Z,100.00
2022-10-19T03:43:50.103Z,100.00
2022-10-19T03:46:17.082Z,100.00
2022-10-19T03:48:44.431Z,100.00
2022-10-19T03:51:20.686Z,100.00
2022-10-19T03:53:48.559Z,100.00
2022-10-19T03:56:17.712Z,100.00
2022-10-19T03:58:45.781Z,100.00
2022-10-19T04:01:23.739Z,100.00
2022-10-19T04:03:55.170Z,100.00
2022-10-19T04:06:26.204Z,100.00
2022-10-19T04:08:53.117Z,100.00
2022-10-19T04:11:24.152Z,100.00
2022-10-19T04:13:52.204Z,100.00
2022-10-19T04:16:19.726Z,100.00
2022-10-19T04:18:46.942Z,100.00
2022-10-19T04:21:20.927Z,100.00
2022-10-19T04:23:47.632Z,100.00
2022-10-19T04:26:14.206Z,100.00
2022-10-19T04:28:40.914Z,100.00
2022-10-19T04:31:07.898Z,100.00
2022-10-19T04:33:34.874Z,100.00
2022-10-19T04:36:05.047Z,100.00
2022-10-19T04:38:31.835Z,100.00
2022-10-19T04:41:06.864Z,100.00
2022-10-19T04:43:33.939Z,100.00
2022-10-19T04:46:05.775Z,100.00
2022-10-19T04:48:34.319Z,100.00
2022-10-19T04:51:01.015Z,100.00
2022-10-19T04:53:27.714Z,100.00
2022-10-19T04:55:54.579Z,100.00
2022-10-19T04:58:21.305Z,100.00
2022-10-19T05:00:48.094Z,100.00
2022-10-19T05:03:15.170Z,100.00
2022-10-19T05:05:41.845Z,100.00
2022-10-19T05:08:09.887Z,100.00
2022-10-19T05:10:37.706Z,100.00
2022-10-19T05:13:04.931Z,100.00
2022-10-19T05:15:31.933Z,100.00
2022-10-19T05:17:58.678Z,100.00
2022-10-19T05:20:25.632Z,100.00
2022-10-19T05:22:52.250Z,100.00
2022-10-19T05:25:18.860Z,100.00
2022-10-19T05:27:45.801Z,100.00
2022-10-19T05:30:14.383Z,100.00
2022-10-19T05:32:40.972Z,100.00
2022-10-19T05:35:08.020Z,100.00
2022-10-19T05:37:34.835Z,100.00
2022-10-19T05:40:01.803Z,100.00
2022-10-19T05:42:28.483Z,100.00
2022-10-19T05:44:55.101Z,100.00
2022-10-19T05:47:21.728Z,100.00
2022-10-19T05:49:48.308Z,100.00
2022-10-19T05:52:15.259Z,100.00
2022-10-19T05:54:42.285Z,100.00
2022-10-19T05:57:08.858Z,100.00
2022-10-19T05:59:35.469Z,100.00
2022-10-19T06:02:02.144Z,100.00
2022-10-19T06:04:28.734Z,100.00
2022-10-19T06:06:55.329Z,100.00
2022-10-19T06:09:21.901Z,100.00
2022-10-19T06:11:48.574Z,100.00
2022-10-19T06:14:16.167Z,100.00
2022-10-19T06:16:42.870Z,100.00
2022-10-19T06:19:09.566Z,100.00
2022-10-19T06:21:36.118Z,100.00
2022-10-19T06:24:05.077Z,100.00
2022-10-19T06:26:33.490Z,100.00
2022-10-19T06:29:01.028Z,100.00
2022-10-19T06:31:29.306Z,100.00
2022-10-19T06:33:56.265Z,100.00
2022-10-19T06:36:25.515Z,100.00
2022-10-19T06:38:53.268Z,100.00
2022-10-19T06:41:20.534Z,100.00
2022-10-19T06:43:54.400Z,100.00
2022-10-19T06:46:23.469Z,100.00
2022-10-19T06:49:01.700Z,100.00
2022-10-19T06:51:30.607Z,100.00
2022-10-19T06:53:57.610Z,100.00
2022-10-19T06:56:26.076Z,100.00
2022-10-19T06:58:52.981Z,100.00
2022-10-19T07:01:20.044Z,100.00
2022-10-19T07:03:46.815Z,100.00
2022-10-19T07:06:13.979Z,100.00
2022-10-19T07:08:42.559Z,100.00
2022-10-19T07:11:12.101Z,100.00
2022-10-19T07:13:38.754Z,100.00
2022-10-19T07:16:17.619Z,100.00
2022-10-19T07:18:48.311Z,100.00
2022-10-19T07:21:16.412Z,100.00
2022-10-19T07:23:44.718Z,100.00
2022-10-19T07:26:13.964Z,100.00
2022-10-19T07:28:42.153Z,100.00
2022-10-19T07:31:11.748Z,100.00
2022-10-19T07:33:38.407Z,100.00
2022-10-19T07:36:08.504Z,100.00
2022-10-19T07:38:35.856Z,100.00
2022-10-19T07:41:08.298Z,100.00
2022-10-19T07:43:35.518Z,100.00
2022-10-19T07:46:03.838Z,100.00
2022-10-19T07:48:30.785Z,100.00
2022-10-19T07:50:57.589Z,100.00
2022-10-19T07:53:24.397Z,100.00
2022-10-19T07:55:51.050Z,100.00
2022-10-19T07:58:17.647Z,100.00
2022-10-19T08:00:44.319Z,100.00
2022-10-19T08:03:43.783Z,100.00
2022-10-19T08:06:05.334Z,100.00
2022-10-19T08:08:32.350Z,100.00
2022-10-19T08:11:10.145Z,100.00
2022-10-19T08:13:37.150Z,100.00
2022-10-19T08:16:04.006Z,100.00
2022-10-19T08:21:03.066Z,100.00
2022-10-19T08:23:29.690Z,100.00
2022-10-19T08:25:59.562Z,100.00
2022-10-19T08:28:26.186Z,100.00
2022-10-19T08:30:57.954Z,100.00
2022-10-19T08:33:26.320Z,100.00
2022-10-19T08:35:54.125Z,100.00
2022-10-19T08:38:21.008Z,100.00
2022-10-19T08:40:47.706Z,100.00
2022-10-19T08:43:14.290Z,100.00
2022-10-19T08:45:56.235Z,100.00
2022-10-19T08:48:27.602Z,100.00
2022-10-19T08:50:55.768Z,100.00
2022-10-19T08:53:43.697Z,100.00
2022-10-19T08:59:39.140Z,100.00
2022-10-19T09:02:47.013Z,100.00
2022-10-19T09:05:32.831Z,100.00
2022-10-19T09:08:00.037Z,100.00
2022-10-19T09:10:32.257Z,100.00
2022-10-19T09:13:09.997Z,100.00
2022-10-19T09:15:46.163Z,100.00
2022-10-19T09:18:31.544Z,100.00
2022-10-19T09:21:07.161Z,100.00
2022-10-19T09:23:52.416Z,100.00
2022-10-19T09:26:22.468Z,100.00
2022-10-19T09:29:01.022Z,100.00
2022-10-19T09:31:32.476Z,100.00
2022-10-19T09:34:03.769Z,100.00
2022-10-19T09:36:50.218Z,100.00
2022-10-19T09:39:17.968Z,100.00
2022-10-19T09:41:51.286Z,100.00
2022-10-19T09:44:18.695Z,100.00
2022-10-19T09:46:57.884Z,100.00
2022-10-19T09:49:41.895Z,100.00
2022-10-19T09:52:33.804Z,100.00
2022-10-19T09:55:24.858Z,100.00
2022-10-19T09:58:01.062Z,100.00
2022-10-19T10:00:39.913Z,100.00
2022-10-19T10:03:07.610Z,100.00
2022-10-19T10:05:39.029Z,100.00
2022-10-19T10:08:23.266Z,100.00
2022-10-19T10:11:12.291Z,100.00
2022-10-19T10:13:57.551Z,100.00
2022-10-19T10:16:33.099Z,100.00
2022-10-19T10:19:00.734Z,100.00
2022-10-19T10:21:33.644Z,100.00
2022-10-19T10:24:17.386Z,100.00
2022-10-19T10:26:46.884Z,100.00
2022-10-19T10:29:25.891Z,100.00
2022-10-19T10:31:55.591Z,100.00
2022-10-19T10:34:50.601Z,100.00
2022-10-19T10:37:27.729Z,100.00
2022-10-19T10:39:59.174Z,100.00
2022-10-19T10:42:41.274Z,100.00
2022-10-19T10:45:32.393Z,100.00
2022-10-19T10:48:11.979Z,100.00
2022-10-19T10:50:38.777Z,100.00
2022-10-19T10:53:24.028Z,100.00
2022-10-19T10:55:56.391Z,100.00
2022-10-19T10:58:41.329Z,100.00
2022-10-19T11:01:18.961Z,100.00
2022-10-19T11:03:52.811Z,100.00
2022-10-19T11:09:11.718Z,100.00
2022-10-19T11:11:46.559Z,100.00
2022-10-19T11:14:49.618Z,100.00
2022-10-19T11:17:27.729Z,100.00
2022-10-19T11:19:54.465Z,100.00
2022-10-19T11:22:26.314Z,100.00
2022-10-19T11:25:16.911Z,100.00
2022-10-19T11:28:12.923Z,100.00
2022-10-19T11:31:07.499Z,100.00
2022-10-19T11:36:30.116Z,100.00
2022-10-19T11:39:15.528Z,100.00
2022-10-19T11:41:56.539Z,100.00
2022-10-19T11:44:45.985Z,100.00
2022-10-19T11:47:52.140Z,100.00
2022-10-19T11:50:44.128Z,100.00
2022-10-19T11:53:32.341Z,100.00
2022-10-19T11:56:39.164Z,100.00
2022-10-19T11:59:33.765Z,100.00
2022-10-19T12:02:45.334Z,100.00
2022-10-19T12:05:36.556Z,100.00
2022-10-19T12:08:32.585Z,100.00
2022-10-19T12:11:36.381Z,100.00
2022-10-19T12:14:06.258Z,100.00
2022-10-19T12:16:53.807Z,100.00
2022-10-19T12:19:24.960Z,100.00
2022-10-19T12:21:55.529Z,100.00
2022-10-19T12:24:25.720Z,100.00
2022-10-19T12:26:54.808Z,100.00
2022-10-19T12:29:39.835Z,100.00
2022-10-19T12:32:08.042Z,100.00
2022-10-19T12:35:12.498Z,100.00
2022-10-19T12:37:55.285Z,100.00
2022-10-19T12:40:28.022Z,100.00
2022-10-19T12:43:18.057Z,100.00
2022-10-19T12:46:11.015Z,100.00
2022-10-19T12:48:39.245Z,100.00
2022-10-19T12:51:11.999Z,100.00
2022-10-19T12:53:48.875Z,100.00
2022-10-19T12:56:22.970Z,100.00
2022-10-19T12:59:01.753Z,97.06
2022-10-19T13:01:28.476Z,96.85
2022-10-19T13:04:29.723Z,95.74
2022-10-19T13:06:56.323Z,96.63
2022-10-19T13:09:22.887Z,95.83
2022-10-19T13:12:21.991Z,93.17
2022-10-19T13:14:53.020Z,88.85
2022-10-19T13:17:36.535Z,91.42
2022-10-19T13:20:15.613Z,89.06
2022-10-19T13:22:45.930Z,89.97
2022-10-19T13:25:28.112Z,94.38
2022-10-19T13:28:01.704Z,92.86
2022-10-19T13:30:46.604Z,96.13
2022-10-19T13:33:25.702Z,95.21
2022-10-19T13:35:58.432Z,92.41
2022-10-19T13:38:43.422Z,89.28
2022-10-19T13:41:15.758Z,86.91
2022-10-19T13:44:01.213Z,85.40
2022-10-19T13:46:30.880Z,90.88
2022-10-19T13:49:27.830Z,95.77
2022-10-19T13:52:09.060Z,95.45
2022-10-19T13:55:22.008Z,100.00
2022-10-19T13:58:14.074Z,100.00
2022-10-19T14:01:18.418Z,100.00
2022-10-19T14:04:14.562Z,100.00
2022-10-19T14:07:00.038Z,100.00
2022-10-19T14:09:46.823Z,100.00
2022-10-19T14:12:23.761Z,100.00
2022-10-19T14:14:53.523Z,100.00
2022-10-19T14:17:27.878Z,100.00
2022-10-19T14:19:57.180Z,100.00
2022-10-19T14:22:42.178Z,100.00
2022-10-19T14:25:21.990Z,100.00
2022-10-19T14:27:56.883Z,100.00
2022-10-19T14:30:35.618Z,100.00
2022-10-19T14:33:09.044Z,100.00
2022-10-19T14:35:37.848Z,100.00
2022-10-19T14:38:15.095Z,100.00
2022-10-19T14:40:42.134Z,100.00
2022-10-19T14:43:20.027Z,100.00
2022-10-19T14:46:04.174Z,100.00
2022-10-19T14:48:31.073Z,100.00
2022-10-19T14:50:58.324Z,100.00
2022-10-19T14:53:34.071Z,100.00
2022-10-19T14:56:13.853Z,100.00
2022-10-19T14:59:02.975Z,100.00
2022-10-19T15:01:29.622Z,100.00
2022-10-19T15:03:56.630Z,100.00
2022-10-19T15:06:30.439Z,100.00
2022-10-19T15:09:03.007Z,100.00
2022-10-19T15:11:33.308Z,100.00
2022-10-19T15:14:14.275Z,100.00
2022-10-19T15:16:52.057Z,100.00
2022-10-19T15:19:31.823Z,100.00
2022-10-19T15:22:13.701Z,100.00
2022-10-19T15:24:53.756Z,100.00
2022-10-19T15:27:22.697Z,100.00
2022-10-19T15:30:01.544Z,100.00
2022-10-19T15:32:43.644Z,100.00
2022-10-19T15:35:12.503Z,100.00
2022-10-19T15:37:43.565Z,100.00
2022-10-19T15:40:21.066Z,100.00
2022-10-19T15:42:48.978Z,100.00
2022-10-19T15:45:38.152Z,100.00
2022-10-19T15:48:10.916Z,100.00
2022-10-19T15:50:42.845Z,100.00
2022-10-19T15:53:09.805Z,100.00
2022-10-19T15:55:36.547Z,100.00
2022-10-19T15:58:03.187Z,100.00
2022-10-19T16:00:30.366Z,100.00
2022-10-19T16:02:57.018Z,100.00
2022-10-19T16:05:24.270Z,100.00
2022-10-19T16:07:50.992Z,100.00
2022-10-19T16:10:21.244Z,100.00
2022-10-19T16:12:47.856Z,100.00
2022-10-19T16:15:22.085Z,100.00
2022-10-19T16:18:00.863Z,100.00
2022-10-19T16:20:29.238Z,100.00
2022-10-19T16:22:56.182Z,100.00
2022-10-19T16:25:22.889Z,100.00
2022-10-19T16:27:49.692Z,100.00
2022-10-19T16:30:16.434Z,100.00
2022-10-19T16:32:43.169Z,100.00
2022-10-19T16:35:10.345Z,100.00
2022-10-19T16:37:37.434Z,100.00
2022-10-19T16:40:05.341Z,100.00
2022-10-19T16:42:32.641Z,100.00
2022-10-19T16:44:59.529Z,100.00
2022-10-19T16:47:26.344Z,100.00
2022-10-19T16:50:01.631Z,100.00
2022-10-19T16:52:34.279Z,100.00
2022-10-19T16:55:01.446Z,100.00
2022-10-19T16:57:30.935Z,100.00
2022-10-19T16:59:57.580Z,100.00
2022-10-19T17:02:24.265Z,100.00
2022-10-19T17:04:51.005Z,100.00
2022-10-19T17:07:18.320Z,100.00
2022-10-19T17:09:45.147Z,100.00
2022-10-19T17:12:12.263Z,100.00
2022-10-19T17:14:40.862Z,100.00
2022-10-19T17:17:08.559Z,100.00
2022-10-19T17:19:36.537Z,100.00
2022-10-19T17:22:05.170Z,100.00
2022-10-19T17:24:32.218Z,100.00
2022-10-19T17:27:01.589Z,100.00
2022-10-19T17:29:28.240Z,100.00
2022-10-19T17:31:55.119Z,100.00
2022-10-19T17:34:21.850Z,100.00
2022-10-19T17:36:48.762Z,100.00
2022-10-19T17:39:19.087Z,100.00
2022-10-19T17:41:47.156Z,100.00
2022-10-19T17:44:14.389Z,100.00
2022-10-19T17:46:41.343Z,100.00
2022-10-19T17:49:08.936Z,100.00
2022-10-19T17:51:36.166Z,100.00
2022-10-19T17:54:05.626Z,100.00
2022-10-19T17:56:32.557Z,100.00
2022-10-19T17:59:00.146Z,100.00
2022-10-19T18:01:27.506Z,100.00
2022-10-19T18:03:54.129Z,100.00
2022-10-19T18:06:23.648Z,100.00
2022-10-19T18:08:53.201Z,100.00
2022-10-19T18:11:22.788Z,100.00
2022-10-19T18:13:50.750Z,100.00
2022-10-19T18:16:23.255Z,100.00
2022-10-19T18:18:52.043Z,100.00
2022-10-19T18:21:21.542Z,100.00
2022-10-19T18:23:48.931Z,100.00
2022-10-19T18:26:19.722Z,100.00
2022-10-19T18:28:46.759Z,100.00
2022-10-19T18:31:19.650Z,100.00
2022-10-19T18:33:47.774Z,100.00
2022-10-19T18:36:15.162Z,100.00
2022-10-19T18:38:42.143Z,100.00
2022-10-19T18:43:39.516Z,100.00
2022-10-19T18:46:07.462Z,100.00
2022-10-19T18:48:36.757Z,100.00
2022-10-19T18:51:06.706Z,100.00
2022-10-19T18:53:34.022Z,100.00
2022-10-19T18:56:03.449Z,100.00
2022-10-19T18:58:50.507Z,100.00
2022-10-19T19:01:19.994Z,100.00
2022-10-19T19:03:51.551Z,100.00
2022-10-19T19:06:29.760Z,100.00
2022-10-19T19:08:58.100Z,100.00
2022-10-19T19:11:27.112Z,100.00
2022-10-19T19:14:07.479Z,100.00
2022-10-19T19:16:36.512Z,100.00
2022-10-19T19:19:03.872Z,100.00
2022-10-19T19:21:31.891Z,100.00
2022-10-19T19:24:01.113Z,100.00
2022-10-19T19:26:31.593Z,100.00
2022-10-19T19:28:58.577Z,100.00
2022-10-19T19:31:25.678Z,100.00
2022-10-19T19:33:52.468Z,100.00
2022-10-19T19:36:20.268Z,100.00
2022-10-19T19:38:49.022Z,100.00
2022-10-19T19:41:16.621Z,100.00
2022-10-19T19:43:43.724Z,100.00
2022-10-19T19:46:18.714Z,100.00
2022-10-19T19:48:47.612Z,100.00
2022-10-19T19:51:17.310Z,100.00
2022-10-19T19:53:44.945Z,100.00
2022-10-19T19:56:13.000Z,100.00
2022-10-19T19:58:41.220Z,100.00
2022-10-19T20:01:16.716Z,100.00
2022-10-19T20:03:43.976Z,100.00
2022-10-19T20:06:11.007Z,100.00
2022-10-19T20:08:38.551Z,100.00
2022-10-19T20:11:11.520Z,100.00
2022-10-19T20:13:38.684Z,100.00
2022-10-19T20:16:14.011Z,100.00
2022-10-19T20:18:43.389Z,100.00
2022-10-19T20:21:10.179Z,100.00
2022-10-19T20:23:37.144Z,100.00
2022-10-19T20:26:04.138Z,100.00
2022-10-19T20:28:34.025Z,100.00
2022-10-19T20:31:06.606Z,100.00
2022-10-19T20:33:35.386Z,100.00
2022-10-19T20:36:08.009Z,100.00
2022-10-19T20:38:36.099Z,100.00
2022-10-19T20:41:07.778Z,100.00
2022-10-19T20:43:36.677Z,100.00
2022-10-19T20:46:15.179Z,100.00
2022-10-19T20:48:41.983Z,100.00
2022-10-19T20:51:32.541Z,100.00
2022-10-19T20:54:01.712Z,100.00
2022-10-19T20:56:33.339Z,100.00
2022-10-19T20:59:06.314Z,100.00
2022-10-19T21:01:34.943Z,100.00
2022-10-19T21:04:04.717Z,100.00
2022-10-19T21:06:33.337Z,100.00
2022-10-19T21:09:01.054Z,100.00
2022-10-19T21:11:30.799Z,100.00
2022-10-19T21:14:00.163Z,100.00
2022-10-19T21:16:28.423Z,100.00
2022-10-19T21:18:55.313Z,100.00
2022-10-19T21:21:23.565Z,100.00
2022-10-19T21:23:54.005Z,100.00
2022-10-19T21:26:21.027Z,100.00
2022-10-19T21:28:49.232Z,100.00
2022-10-19T21:31:17.862Z,100.00
2022-10-19T21:33:45.397Z,100.00
2022-10-19T21:36:14.090Z,100.00
2022-10-19T21:38:42.042Z,100.00
2022-10-19T21:41:19.675Z,100.00
2022-10-19T21:43:49.030Z,100.00
2022-10-19T21:46:18.397Z,100.00
2022-10-19T21:48:46.164Z,100.00
2022-10-19T21:51:34.280Z,100.00
2022-10-19T21:54:01.658Z,100.00
2022-10-19T21:56:28.609Z,100.00
2022-10-19T21:58:55.619Z,100.00
2022-10-19T22:01:25.549Z,100.00
2022-10-19T22:04:03.653Z,100.00
2022-10-19T22:06:33.394Z,100.00
2022-10-19T22:09:00.878Z,100.00
2022-10-19T22:11:28.317Z,100.00
2022-10-19T22:14:01.460Z,100.00
2022-10-19T22:16:29.499Z,100.00
2022-10-19T22:18:57.121Z,100.00
2022-10-19T22:21:27.957Z,100.00
2022-10-19T22:24:00.881Z,100.00
2022-10-19T22:26:29.911Z,100.00
2022-10-19T22:28:58.209Z,100.00
2022-10-19T22:31:26.840Z,100.00
2022-10-19T22:33:53.738Z,100.00
2022-10-19T22:36:20.695Z,100.00
2022-10-19T22:38:47.773Z,100.00
2022-10-19T22:41:14.450Z,100.00
2022-10-19T22:43:41.022Z,100.00
2022-10-19T22:46:07.819Z,100.00
2022-10-19T22:48:34.591Z,100.00
2022-10-19T22:51:01.170Z,100.00
2022-10-19T22:53:27.743Z,100.00
2022-10-19T22:55:54.513Z,100.00
2022-10-19T22:58:21.206Z,100.00
2022-10-19T23:01:08.688Z,100.00
2022-10-19T23:03:35.844Z,100.00
2022-10-19T23:06:02.499Z,100.00
2022-10-19T23:08:29.408Z,100.00
2022-10-19T23:10:56.132Z,100.00
2022-10-19T23:13:22.903Z,100.00
2022-10-19T23:15:50.799Z,100.00
2022-10-19T23:18:18.076Z,100.00
2022-10-19T23:20:57.158Z,100.00
2022-10-19T23:23:24.154Z,100.00
2022-10-19T23:26:05.845Z,100.00
2022-10-19T23:28:35.035Z,100.00
2022-10-19T23:31:14.197Z,100.00
2022-10-19T23:33:41.161Z,100.00
2022-10-19T23:36:17.102Z,100.00
2022-10-19T23:38:44.915Z,100.00
2022-10-19T23:41:12.289Z,100.00
2022-10-19T23:43:39.773Z,100.00
2022-10-19T23:46:06.982Z,100.00
2022-10-19T23:48:34.509Z,100.00
2022-10-19T23:51:04.212Z,100.00
2022-10-19T23:53:35.674Z,100.00
2022-10-19T23:56:14.212Z,100.00
2022-10-19T23:58:41.093Z,100.00
